Time;durP1;ratioP1;P1;durP2;ratioP2;P2;SDS_P1;SDS_P2;PMS_P1;PMS_P2;Temp;Humidity;BMP_temperature;BMP_pressure;BME280_temperature;BME280_humidity;BME280_pressure;Samples;Min_cycle;Max_cycle;Signal;HPM_P1;HPM_P2
2021/07/11 00:01:16;;;;;;;;;;;;;;;21.79;60.88;101298.81;5038394;28;1686;-59
2021/07/11 00:03:41;;;;;;;;;;;;;;;21.79;61.41;101297.97;5038019;28;862;-59
2021/07/11 00:06:06;;;;;;;;;;;;;;;21.78;62.69;101298.97;5038143;28;1954;-60
2021/07/11 00:08:31;;;;;;;;;;;;;;;21.77;61.25;101294.53;5038358;28;909;-60
2021/07/11 00:10:56;;;;;;;;;;;;;;;21.77;62.09;101303.53;5038256;28;874;-60
2021/07/11 00:13:21;;;;;;;;;;;;;;;21.77;62.41;101292.69;5038486;28;1053;-60
2021/07/11 00:15:46;;;;;;;;;;;;;;;21.76;61.63;101292.84;5038095;28;958;-59
2021/07/11 00:18:13;;;;;;;;;;;;;;;21.76;63.02;101301.00;5037896;28;862;-58
2021/07/11 00:20:38;;;;;;;;;;;;;;;21.74;62.91;101309.28;5038029;28;919;-60
2021/07/11 00:23:03;;;;;;;;;;;;;;;21.75;62.09;101308.28;5037955;28;1009;-60
2021/07/11 00:25:28;;;;;;;;;;;;;;;21.75;61.21;101308.28;5037436;28;1906;-59
2021/07/11 00:27:53;;;;;;;;;;;;;;;21.75;61.49;101310.13;5037567;28;839;-59
2021/07/11 00:30:18;;;;;;;;;;;;;;;21.73;62.45;101310.28;5037771;28;997;-59
2021/07/11 00:32:43;;;;;;;;;;;;;;;21.73;61.66;101321.16;5038105;28;850;-59
2021/07/11 00:35:08;;;;;;;;;;;;;;;21.71;61.58;101314.19;5037441;28;993;-59
2021/07/11 00:37:33;;;;;;;;;;;;;;;21.73;61.85;101321.16;5035880;28;827;-59
2021/07/11 00:39:58;;;;;;;;;;;;;;;21.71;62.04;101320.44;5037616;28;1048;-59
2021/07/11 00:42:23;;;;;;;;;;;;;;;21.71;61.41;101320.44;5037836;28;980;-59
2021/07/11 00:44:49;;;;;;;;;;;;;;;21.71;60.89;101317.75;5037592;28;1898;-58
2021/07/11 00:47:14;;;;;;;;;;;;;;;21.69;61.25;101310.75;5037164;28;1571;-58
2021/07/11 00:49:42;;;;;;;;;;;;;;;21.69;61.88;101310.75;5037344;28;862;-58
2021/07/11 00:52:07;;;;;;;;;;;;;;;21.69;61.01;101319.75;5037819;28;787;-59
2021/07/11 00:54:32;;;;;;;;;;;;;;;21.69;61.48;101310.75;5037402;28;1001;-57
2021/07/11 00:56:57;;;;;;;;;;;;;;;21.68;63.08;101309.91;5037303;28;1781;-55
2021/07/11 00:59:23;;;;;;;;;;;;;;;21.67;62.19;101308.25;5037404;28;864;-56
2021/07/11 01:01:48;;;;;;;;;;;;;;;21.67;61.25;101312.81;5036815;28;949;-58
2021/07/11 01:04:13;;;;;;;;;;;;;;;21.67;61.46;101302.81;5037311;28;784;-59
2021/07/11 01:06:38;;;;;;;;;;;;;;;21.68;61.60;101300.91;5037223;28;1964;-59
2021/07/11 01:09:03;;;;;;;;;;;;;;;21.67;61.45;101307.41;5037177;28;839;-58
2021/07/11 01:11:28;;;;;;;;;;;;;;;21.66;61.80;101301.13;5037100;28;1546;-58
2021/07/11 01:13:54;;;;;;;;;;;;;;;21.63;60.92;101296.00;5037302;28;1001;-59
2021/07/11 01:16:19;;;;;;;;;;;;;;;21.63;61.31;101301.44;5037373;28;855;-60
2021/07/11 01:18:44;;;;;;;;;;;;;;;21.66;61.06;101305.69;5037166;28;1005;-60
2021/07/11 01:21:10;;;;;;;;;;;;;;;21.63;61.47;101309.56;5036934;28;1854;-60
2021/07/11 01:23:35;;;;;;;;;;;;;;;21.63;62.48;101303.28;5037128;28;791;-60
2021/07/11 01:26:00;;;;;;;;;;;;;;;21.63;61.53;101309.56;5035477;28;1975;-60
2021/07/11 01:28:25;;;;;;;;;;;;;;;21.63;61.69;101311.44;5036840;28;1049;-60
2021/07/11 01:30:50;;;;;;;;;;;;;;;21.62;61.79;101310.56;5036613;28;992;-60
2021/07/11 01:33:15;;;;;;;;;;;;;;;21.62;60.96;101307.88;5036935;28;961;-60
2021/07/11 01:35:40;;;;;;;;;;;;;;;21.61;61.48;101310.72;5036584;28;1012;-59
2021/07/11 01:38:05;;;;;;;;;;;;;;;21.60;61.46;101307.16;5037086;28;1630;-58
2021/07/11 01:40:30;;;;;;;;;;;;;;;21.59;61.61;101304.63;5036452;28;941;-58
2021/07/11 01:42:56;;;;;;;;;;;;;;;21.59;60.85;101304.63;5036291;28;799;-58
2021/07/11 01:45:21;;;;;;;;;;;;;;;21.59;62.15;101308.19;5036313;28;1890;-58
2021/07/11 01:47:46;;;;;;;;;;;;;;;21.58;61.88;101311.91;5036105;28;1619;-57
2021/07/11 01:50:11;;;;;;;;;;;;;;;21.58;61.29;101303.75;5035574;28;1080;-58
2021/07/11 01:52:36;;;;;;;;;;;;;;;21.57;61.04;101302.06;5036223;28;807;-59
2021/07/11 01:55:02;;;;;;;;;;;;;;;21.57;61.54;101296.63;5036561;28;1029;-58
2021/07/11 01:57:27;;;;;;;;;;;;;;;21.57;62.17;101298.50;5036333;28;799;-59
2021/07/11 01:59:52;;;;;;;;;;;;;;;21.56;61.29;101297.63;5036320;28;918;-58
2021/07/11 02:02:17;;;;;;;;;;;;;;;21.55;62.70;101298.66;5035867;28;1180;-58
2021/07/11 02:04:42;;;;;;;;;;;;;;;21.52;61.95;101296.25;5036203;28;1890;-58
2021/07/11 02:07:07;;;;;;;;;;;;;;;21.53;62.76;101300.66;5035920;28;1177;-57
2021/07/11 02:09:32;;;;;;;;;;;;;;;21.53;61.90;101311.50;5035901;28;1059;-58
2021/07/11 02:11:58;;;;;;;;;;;;;;;21.52;61.50;101309.81;5036210;28;1032;-57
2021/07/11 02:14:23;;;;;;;;;;;;;;;21.52;61.89;101317.09;5035968;28;811;-57
2021/07/11 02:16:48;;;;;;;;;;;;;;;21.52;61.86;101309.81;5036158;28;1664;-56
2021/07/11 02:19:13;;;;;;;;;;;;;;;21.52;61.83;101308.97;5035371;28;926;-56
2021/07/11 02:21:38;;;;;;;;;;;;;;;21.50;61.91;101300.97;5035736;28;934;-56
2021/07/11 02:24:03;;;;;;;;;;;;;;;21.50;61.41;101306.41;5035666;28;773;-57
2021/07/11 02:26:28;;;;;;;;;;;;;;;21.45;62.92;101306.06;5035648;28;1922;-57
2021/07/11 02:28:53;;;;;;;;;;;;;;;21.43;62.15;101310.78;5035935;28;937;-56
2021/07/11 02:31:19;;;;;;;;;;;;;;;21.22;63.71;101308.41;5035587;28;854;-57
2021/07/11 02:33:44;;;;;;;;;;;;;;;21.24;63.71;101308.25;5035633;28;916;-59
2021/07/11 02:36:09;;;;;;;;;;;;;;;21.31;62.98;101298.50;5035840;28;1566;-59
2021/07/11 02:38:34;;;;;;;;;;;;;;;21.39;61.48;101312.09;5035447;28;1072;-59
2021/07/11 02:40:59;;;;;;;;;;;;;;;21.42;61.96;101323.50;5035310;28;854;-59
2021/07/11 02:43:24;;;;;;;;;;;;;;;21.44;61.27;101318.75;5035206;28;1146;-60
2021/07/11 02:45:49;;;;;;;;;;;;;;;21.45;61.46;101319.63;5035144;28;1957;-59
2021/07/11 02:48:14;;;;;;;;;;;;;;;21.45;61.49;101315.03;5035568;28;1025;-59
2021/07/11 02:50:39;;;;;;;;;;;;;;;21.44;61.40;101329.59;5035351;28;973;-59
2021/07/11 02:53:04;;;;;;;;;;;;;;;21.45;61.26;101325.03;5035724;28;994;-58
2021/07/11 02:55:29;;;;;;;;;;;;;;;21.45;61.42;101323.19;5035602;28;1698;-59
2021/07/11 02:57:55;;;;;;;;;;;;;;;21.45;61.65;101325.03;5035133;28;803;-59
2021/07/11 03:00:20;;;;;;;;;;;;;;;21.45;62.01;101338.59;5035233;28;852;-58
2021/07/11 03:02:45;;;;;;;;;;;;;;;21.46;61.85;101332.16;5034151;28;1736;-59
2021/07/11 03:05:10;;;;;;;;;;;;;;;21.45;61.82;101330.47;5035012;28;1894;-59
2021/07/11 03:07:35;;;;;;;;;;;;;;;21.45;62.01;101335.88;5035060;28;857;-59
2021/07/11 03:10:00;;;;;;;;;;;;;;;21.43;62.00;101324.34;5034741;28;878;-59
2021/07/11 03:12:25;;;;;;;;;;;;;;;21.42;61.52;101325.34;5035201;28;1143;-59
2021/07/11 03:14:50;;;;;;;;;;;;;;;21.40;61.21;101330.06;5035073;28;1731;-59
2021/07/11 03:17:15;;;;;;;;;;;;;;;21.41;61.58;101326.34;5035370;28;891;-59
2021/07/11 03:19:40;;;;;;;;;;;;;;;21.42;61.70;101319.94;5035035;28;942;-56
2021/07/11 03:22:05;;;;;;;;;;;;;;;21.41;61.92;101318.22;5035099;28;1059;-58
2021/07/11 03:24:31;;;;;;;;;;;;;;;21.38;62.30;101321.25;5035512;28;1638;-59
2021/07/11 03:26:56;;;;;;;;;;;;;;;21.20;62.93;101323.13;5034835;28;1977;-58
2021/07/11 03:29:25;;;;;;;;;;;;;;;21.23;63.60;101328.25;5034638;28;1139;-59
2021/07/11 03:31:50;;;;;;;;;;;;;;;21.27;62.14;101326.94;5034645;28;850;-60
2021/07/11 03:34:15;;;;;;;;;;;;;;;21.31;61.62;101328.31;5034874;28;1570;-59
2021/07/11 03:36:40;;;;;;;;;;;;;;;21.35;61.95;101335.09;5034911;28;997;-60
2021/07/11 03:39:05;;;;;;;;;;;;;;;21.34;61.23;101336.97;5035306;28;988;-59
2021/07/11 03:41:31;;;;;;;;;;;;;;;21.36;61.26;101342.25;5035133;28;840;-59
2021/07/11 03:43:56;;;;;;;;;;;;;;;21.27;62.38;101354.03;5034892;28;811;-59
2021/07/11 03:46:21;;;;;;;;;;;;;;;21.13;62.74;101348.13;5034700;28;1961;-59
2021/07/11 03:48:46;;;;;;;;;;;;;;;20.96;63.85;101356.28;5034951;28;884;-59
2021/07/11 03:51:11;;;;;;;;;;;;;;;21.01;63.85;101346.66;5034986;28;1005;-59
2021/07/11 03:53:36;;;;;;;;;;;;;;;20.96;64.46;101357.09;5034910;28;904;-59
2021/07/11 03:56:01;;;;;;;;;;;;;;;20.98;64.24;101333.41;5034622;28;854;-59
2021/07/11 03:58:27;;;;;;;;;;;;;;;20.87;63.56;101344.50;5034553;28;858;-59
2021/07/11 04:00:52;;;;;;;;;;;;;;;20.94;63.54;101342.88;5034728;28;1001;-59
2021/07/11 04:03:17;;;;;;;;;;;;;;;21.09;62.54;101341.31;5034871;28;906;-59
2021/07/11 04:05:43;;;;;;;;;;;;;;;21.18;62.28;101336.81;5034574;28;1890;-59
2021/07/11 04:08:08;;;;;;;;;;;;;;;21.22;61.92;101335.53;5034604;28;1008;-59
2021/07/11 04:10:33;;;;;;;;;;;;;;;21.24;61.98;101346.22;5034404;28;844;-59
2021/07/11 04:12:58;;;;;;;;;;;;;;;21.25;62.35;101351.47;5036215;28;911;-59
2021/07/11 04:15:23;;;;;;;;;;;;;;;21.25;61.37;101345.22;5037818;28;1064;-59
2021/07/11 04:17:48;;;;;;;;;;;;;;;21.23;61.98;101345.38;5038405;28;1064;-59
2021/07/11 04:20:13;;;;;;;;;;;;;;;21.24;61.49;101348.94;5037902;28;850;-59
2021/07/11 04:22:38;;;;;;;;;;;;;;;21.24;62.11;101338.09;5038386;28;1674;-59
2021/07/11 04:25:03;;;;;;;;;;;;;;;21.23;61.79;101330.94;5038122;28;1910;-59
2021/07/11 04:27:28;;;;;;;;;;;;;;;21.22;62.70;101324.69;5037944;28;1017;-59
2021/07/11 04:29:53;;;;;;;;;;;;;;;21.23;61.83;101325.53;5037629;28;961;-59
2021/07/11 04:32:18;;;;;;;;;;;;;;;21.23;61.47;101320.97;5037966;28;1636;-59
2021/07/11 04:34:44;;;;;;;;;;;;;;;21.14;63.21;101314.56;5037717;28;839;-59
2021/07/11 04:37:11;;;;;;;;;;;;;;;21.15;62.17;101310.00;5037773;28;889;-59
2021/07/11 04:39:36;;;;;;;;;;;;;;;21.07;62.30;101304.53;5037892;28;886;-59
2021/07/11 04:42:01;;;;;;;;;;;;;;;20.86;64.13;101307.56;5038109;28;1675;-59
2021/07/11 04:44:26;;;;;;;;;;;;;;;20.92;63.21;101306.94;5037729;28;851;-59
2021/07/11 04:46:52;;;;;;;;;;;;;;;20.61;63.86;101313.72;5037465;28;1937;-59
2021/07/11 04:49:17;;;;;;;;;;;;;;;20.51;64.01;101310.25;5037755;28;929;-59
2021/07/11 04:51:42;;;;;;;;;;;;;;;20.77;63.66;101309.34;5037657;28;795;-59
2021/07/11 04:54:07;;;;;;;;;;;;;;;20.75;63.74;101307.81;5037324;28;1002;-59
2021/07/11 04:56:32;;;;;;;;;;;;;;;20.69;63.45;101311.97;5037591;28;1036;-59
2021/07/11 04:58:57;;;;;;;;;;;;;;;20.73;63.94;101316.09;5037135;28;1010;-60
2021/07/11 05:01:23;;;;;;;;;;;;;;;20.76;63.69;101312.22;5037374;28;826;-59
2021/07/11 05:03:48;;;;;;;;;;;;;;;20.71;63.46;101317.22;5035363;28;2298;-57
2021/07/11 05:06:13;;;;;;;;;;;;;;;20.54;64.49;101320.78;5035119;28;1992;-58
2021/07/11 05:08:38;;;;;;;;;;;;;;;20.57;64.93;101318.63;5035117;28;1694;-55
2021/07/11 05:11:03;;;;;;;;;;;;;;;20.62;63.79;101315.44;5035347;28;1699;-57
2021/07/11 05:13:28;;;;;;;;;;;;;;;20.84;63.10;101314.13;5036819;28;1726;-57
2021/07/11 05:15:53;;;;;;;;;;;;;;;20.95;62.54;101308.50;5035344;28;1701;-56
2021/07/11 05:18:18;;;;;;;;;;;;;;;21.03;62.05;101313.97;5033794;28;1800;-55
2021/07/11 05:20:43;;;;;;;;;;;;;;;21.08;62.03;101311.66;5034969;28;1689;-57
2021/07/11 05:23:08;;;;;;;;;;;;;;;21.10;62.48;101310.50;5035144;28;1721;-58
2021/07/11 05:25:33;;;;;;;;;;;;;;;21.14;61.64;101306.44;5035405;28;1910;-58
2021/07/11 05:27:58;;;;;;;;;;;;;;;21.19;62.40;101310.56;5037838;28;1649;-57
2021/07/11 05:30:24;;;;;;;;;;;;;;;21.21;63.14;101305.84;5033150;28;1896;-58
2021/07/11 05:32:49;;;;;;;;;;;;;;;21.21;62.12;101308.56;5034015;28;1980;-57
2021/07/11 05:35:14;;;;;;;;;;;;;;;21.19;62.09;101300.56;5033857;28;1668;-58
2021/07/11 05:37:39;;;;;;;;;;;;;;;21.17;62.74;101299.00;5036168;28;1672;-56
2021/07/11 05:40:04;;;;;;;;;;;;;;;21.17;62.21;101305.28;5037821;28;1819;-56
2021/07/11 05:42:29;;;;;;;;;;;;;;;21.19;62.29;101307.84;5036786;28;1698;-56
2021/07/11 05:44:54;;;;;;;;;;;;;;;21.20;62.58;101309.56;5036463;28;1898;-56
2021/07/11 05:47:19;;;;;;;;;;;;;;;21.19;62.50;101307.84;5037436;28;1776;-58
2021/07/11 05:49:44;;;;;;;;;;;;;;;21.18;61.61;101309.69;5022382;28;2025;-58
2021/07/11 05:52:09;;;;;;;;;;;;;;;21.17;62.24;101310.72;5033470;28;1776;-58
2021/07/11 05:54:34;;;;;;;;;;;;;;;21.17;62.05;101316.13;5035200;28;2133;-57
2021/07/11 05:56:59;;;;;;;;;;;;;;;21.17;62.41;101312.56;5035148;28;1688;-58
2021/07/11 05:59:25;;;;;;;;;;;;;;;21.15;62.49;101313.56;5034525;28;1605;-58
2021/07/11 06:01:50;;;;;;;;;;;;;;;21.15;62.57;101321.69;5034926;28;1937;-58
2021/07/11 06:04:15;;;;;;;;;;;;;;;21.15;63.26;101320.84;5034287;28;1551;-59
2021/07/11 06:06:40;;;;;;;;;;;;;;;21.09;62.70;101314.22;5032651;28;1894;-58
2021/07/11 06:09:05;;;;;;;;;;;;;;;21.11;62.93;101317.63;5033961;28;1523;-59
2021/07/11 06:11:30;;;;;;;;;;;;;;;21.14;61.73;101320.00;5033762;28;1515;-59
2021/07/11 06:13:55;;;;;;;;;;;;;;;21.03;63.00;101314.84;5033699;28;1636;-59
2021/07/11 06:16:20;;;;;;;;;;;;;;;21.06;64.00;101317.22;5033930;28;1663;-59
2021/07/11 06:18:45;;;;;;;;;;;;;;;21.14;63.48;101332.69;5032564;28;1803;-59
2021/07/11 06:21:10;;;;;;;;;;;;;;;21.17;64.16;101326.13;5033524;28;1607;-60
2021/07/11 06:23:36;;;;;;;;;;;;;;;21.19;64.30;101332.22;5030324;28;2833;-58
2021/07/11 06:26:02;;;;;;;;;;;;;;;21.19;63.93;101329.53;5028209;28;1973;-59
2021/07/11 06:28:27;;;;;;;;;;;;;;;21.12;64.41;101322.03;5033864;28;1828;-60
2021/07/11 06:30:53;;;;;;;;;;;;;;;21.15;63.93;101324.41;5024671;28;1797;-59
2021/07/11 06:33:19;;;;;;;;;;;;;;;21.19;64.30;101327.66;5035032;28;1798;-60
2021/07/11 06:35:44;;;;;;;;;;;;;;;21.18;63.61;101334.09;5034660;28;1887;-60
2021/07/11 06:38:09;;;;;;;;;;;;;;;21.11;64.09;101336.59;5028467;28;1795;-59
2021/07/11 06:40:34;;;;;;;;;;;;;;;21.02;64.89;101344.78;5034638;28;1817;-59
2021/07/11 06:42:59;;;;;;;;;;;;;;;21.12;64.21;101351.84;5032080;28;1653;-60
2021/07/11 06:45:24;;;;;;;;;;;;;;;21.18;63.69;101360.34;5034880;28;1957;-59
2021/07/11 06:47:50;;;;;;;;;;;;;;;21.17;64.14;101359.50;5026353;28;1672;-60
2021/07/11 06:50:15;;;;;;;;;;;;;;;21.19;64.00;101362.91;5033218;28;2131;-59
2021/07/11 06:52:40;;;;;;;;;;;;;;;21.20;63.78;101364.66;5024325;28;1832;-60
2021/07/11 06:55:05;;;;;;;;;;;;;;;21.27;63.69;101364.88;5022322;28;1852;-59
2021/07/11 06:57:30;;;;;;;;;;;;;;;21.27;63.52;101360.31;5032829;28;2177;-60
2021/07/11 06:59:55;;;;;;;;;;;;;;;21.24;63.19;101367.91;5033854;28;1656;-60
2021/07/11 07:02:20;;;;;;;;;;;;;;;21.24;63.63;101370.59;5034099;28;1961;-60
2021/07/11 07:04:48;;;;;;;;;;;;;;;21.23;63.71;101374.31;5034475;28;1955;-58
2021/07/11 07:07:13;;;;;;;;;;;;;;;21.22;64.17;101378.91;5031216;28;1648;-59
2021/07/11 07:09:38;;;;;;;;;;;;;;;21.25;64.00;101377.75;5032158;28;1941;-59
2021/07/11 07:12:03;;;;;;;;;;;;;;;21.35;64.67;101373.06;5034663;28;1948;-58
2021/07/11 07:14:28;;;;;;;;;;;;;;;21.36;65.01;101374.78;5034795;28;1910;-58
2021/07/11 07:16:53;;;;;;;;;;;;;;;21.32;65.43;101367.94;5035151;28;2119;-57
2021/07/11 07:19:18;;;;;;;;;;;;;;;21.30;65.50;101364.56;5034956;28;1947;-58
2021/07/11 07:21:43;;;;;;;;;;;;;;;21.30;65.29;101364.56;5034686;28;1924;-58
2021/07/11 07:24:08;;;;;;;;;;;;;;;21.30;65.17;101381.69;5031614;28;1730;-58
2021/07/11 07:26:33;;;;;;;;;;;;;;;21.31;64.77;101388.81;5031035;28;1977;-58
2021/07/11 07:28:58;;;;;;;;;;;;;;;21.28;64.99;101393.69;5034117;28;1817;-59
2021/07/11 07:31:23;;;;;;;;;;;;;;;21.26;65.72;101387.56;5030923;28;1792;-59
2021/07/11 07:33:48;;;;;;;;;;;;;;;21.29;64.96;101392.69;5031079;28;1830;-58
2021/07/11 07:36:14;;;;;;;;;;;;;;;21.32;64.05;101395.06;5033863;28;2015;-58
2021/07/11 07:38:39;;;;;;;;;;;;;;;21.33;64.62;101404.91;5024843;28;1918;-58
2021/07/11 07:41:04;;;;;;;;;;;;;;;21.24;66.66;101409.41;5033540;28;1786;-58
2021/07/11 07:43:29;;;;;;;;;;;;;;;21.21;67.83;101398.03;5022098;28;1840;-58
2021/07/11 07:45:54;;;;;;;;;;;;;;;21.29;65.96;101404.38;5033042;28;1957;-59
2021/07/11 07:48:19;;;;;;;;;;;;;;;21.29;65.82;101409.81;5030470;28;1747;-58
2021/07/11 07:50:44;;;;;;;;;;;;;;;21.30;66.02;101407.97;5035465;28;1733;-56
2021/07/11 07:53:09;;;;;;;;;;;;;;;21.26;65.10;101412.81;5026964;28;1830;-58
2021/07/11 07:55:34;;;;;;;;;;;;;;;21.19;64.62;101409.00;5035610;28;1636;-58
2021/07/11 07:57:59;;;;;;;;;;;;;;;21.10;64.18;101407.22;5027868;28;1695;-58
2021/07/11 08:00:24;;;;;;;;;;;;;;;21.17;64.18;101410.16;5025144;28;1664;-58
2021/07/11 08:02:50;;;;;;;;;;;;;;;21.19;64.17;101410.84;5031339;28;1601;-58
2021/07/11 08:05:15;;;;;;;;;;;;;;;21.18;65.04;101419.97;5032763;28;2004;-60
2021/07/11 08:07:40;;;;;;;;;;;;;;;21.13;64.59;101417.75;5028459;28;1656;-59
2021/07/11 08:10:05;;;;;;;;;;;;;;;21.00;64.79;101412.69;5031532;28;1740;-59
2021/07/11 08:12:31;;;;;;;;;;;;;;;21.12;64.11;101414.19;5021922;28;1858;-58
2021/07/11 08:14:56;;;;;;;;;;;;;;;21.31;63.78;101425.94;5028970;28;1590;-58
2021/07/11 08:17:21;;;;;;;;;;;;;;;21.38;64.50;101424.28;5021449;28;1593;-56
2021/07/11 08:19:46;;;;;;;;;;;;;;;21.39;64.07;101417.84;5037126;28;1640;-56
2021/07/11 08:22:11;;;;;;;;;;;;;;;21.41;63.57;101421.25;5039406;28;1646;-55
2021/07/11 08:24:36;;;;;;;;;;;;;;;21.44;64.60;101415.53;5039092;28;1878;-56
2021/07/11 08:27:02;;;;;;;;;;;;;;;21.49;64.06;101421.34;5035169;28;1886;-56
2021/07/11 08:29:27;;;;;;;;;;;;;;;21.42;64.21;101421.09;5040884;28;2187;-52
2021/07/11 08:31:52;;;;;;;;;;;;;;;21.45;63.86;101422.66;5042320;28;1792;-53
2021/07/11 08:34:17;;;;;;;;;;;;;;;21.47;64.08;101426.06;5050567;28;2035;-57
2021/07/11 08:36:43;;;;;;;;;;;;;;;21.66;63.61;101420.47;5046728;28;2233;-59
2021/07/11 08:39:08;;;;;;;;;;;;;;;21.63;63.58;101420.78;5041950;28;1803;-58
2021/07/11 08:41:33;;;;;;;;;;;;;;;21.48;63.24;101416.94;5038081;28;1641;-58
2021/07/11 08:43:58;;;;;;;;;;;;;;;21.61;62.95;101411.94;5028096;28;1883;-59
2021/07/11 08:46:23;;;;;;;;;;;;;;;21.63;64.71;101412.66;5045694;28;1938;-59
2021/07/11 08:48:49;;;;;;;;;;;;;;;21.61;63.71;101414.66;5043208;28;2009;-58
2021/07/11 08:51:14;;;;;;;;;;;;;;;21.64;64.40;101422.50;5041482;28;1669;-59
2021/07/11 08:53:39;;;;;;;;;;;;;;;21.71;63.20;101420.81;5038477;28;1891;-59
2021/07/11 08:56:05;;;;;;;;;;;;;;;21.76;63.90;101410.38;5043384;28;1872;-59
2021/07/11 08:58:30;;;;;;;;;;;;;;;21.83;63.35;101418.72;5047215;28;1847;-58
2021/07/11 09:00:55;;;;;;;;;;;;;;;21.87;63.65;101414.66;5043757;28;1701;-58
2021/07/11 09:03:20;;;;;;;;;;;;;;;21.92;63.47;101414.19;5042534;28;1709;-58
2021/07/11 09:05:45;;;;;;;;;;;;;;;21.81;63.52;101413.47;5035714;28;1965;-58
2021/07/11 09:08:10;;;;;;;;;;;;;;;21.29;65.04;101412.53;5037864;28;1525;-59
2021/07/11 09:10:36;;;;;;;;;;;;;;;21.00;65.32;101423.53;5040583;28;1926;-60
2021/07/11 09:13:01;;;;;;;;;;;;;;;21.23;65.04;101417.69;5036886;28;1694;-59
2021/07/11 09:15:26;;;;;;;;;;;;;;;21.30;63.93;101416.09;5036116;28;1604;-59
2021/07/11 09:17:52;;;;;;;;;;;;;;;21.22;63.93;101427.69;5037520;28;1862;-59
2021/07/11 09:20:17;;;;;;;;;;;;;;;21.32;63.95;101424.88;5034786;28;1703;-59
2021/07/11 09:22:42;;;;;;;;;;;;;;;21.30;63.91;101430.50;5037768;28;2174;-59
2021/07/11 09:25:07;;;;;;;;;;;;;;;21.38;63.11;101437.84;5033569;28;1992;-59
2021/07/11 09:27:32;;;;;;;;;;;;;;;21.31;63.20;101440.34;5036031;28;2013;-59
2021/07/11 09:29:58;;;;;;;;;;;;;;;21.19;63.56;101438.81;5036555;28;1668;-59
2021/07/11 09:32:23;;;;;;;;;;;;;;;21.09;63.45;101432.63;5033191;28;1788;-59
2021/07/11 09:34:48;;;;;;;;;;;;;;;21.10;62.76;101440.59;5033246;28;1579;-59
2021/07/11 09:37:15;;;;;;;;;;;;;;;20.98;63.37;101439.09;5039947;28;1938;-60
2021/07/11 09:39:40;;;;;;;;;;;;;;;20.90;63.65;101440.88;5039312;28;2059;-60
2021/07/11 09:42:05;;;;;;;;;;;;;;;20.92;63.85;101444.28;5031085;28;1558;-60
2021/07/11 09:44:30;;;;;;;;;;;;;;;20.87;63.74;101441.16;5042499;28;1863;-60
2021/07/11 09:46:55;;;;;;;;;;;;;;;20.92;64.31;101445.13;5039315;28;1898;-60
2021/07/11 09:49:20;;;;;;;;;;;;;;;21.02;63.77;101439.63;5032101;28;1701;-60
2021/07/11 09:51:45;;;;;;;;;;;;;;;21.06;63.68;101441.03;5034760;28;1703;-60
2021/07/11 09:54:10;;;;;;;;;;;;;;;21.11;64.28;101441.44;5029959;28;1846;-60
2021/07/11 09:56:35;;;;;;;;;;;;;;;21.18;64.13;101438.97;5043991;28;1971;-60
2021/07/11 09:59:01;;;;;;;;;;;;;;;21.26;63.78;101428.25;5036534;28;1647;-60
2021/07/11 10:01:26;;;;;;;;;;;;;;;21.32;64.50;101428.47;5030905;28;1962;-60
2021/07/11 10:03:51;;;;;;;;;;;;;;;21.43;65.20;101427.38;5038416;28;1709;-60
2021/07/11 10:06:16;;;;;;;;;;;;;;;21.44;64.69;101429.94;5027708;28;1947;-60
2021/07/11 10:08:41;;;;;;;;;;;;;;;21.41;64.72;101432.09;5030471;28;1956;-60
2021/07/11 10:11:06;;;;;;;;;;;;;;;21.42;64.09;101433.81;5024266;28;1708;-60
2021/07/11 10:13:33;;;;;;;;;;;;;;;21.43;64.24;101433.66;5028202;28;1639;-60
2021/07/11 10:15:58;;;;;;;;;;;;;;;21.45;63.71;101422.66;5033352;28;1732;-60
2021/07/11 10:18:23;;;;;;;;;;;;;;;21.43;64.10;101425.53;5033932;28;2169;-60
2021/07/11 10:20:49;;;;;;;;;;;;;;;21.43;64.28;101427.38;5031615;28;2138;-60
2021/07/11 10:23:14;;;;;;;;;;;;;;;21.44;63.59;101429.94;5023964;28;2037;-60
2021/07/11 10:25:39;;;;;;;;;;;;;;;21.43;63.93;101430.09;5025514;28;2033;-59
2021/07/11 10:28:04;;;;;;;;;;;;;;;21.44;63.64;101429.09;5021865;28;1851;-60
2021/07/11 10:30:29;;;;;;;;;;;;;;;21.42;64.08;101428.38;5027082;28;2708;-59
2021/07/11 10:32:54;;;;;;;;;;;;;;;21.41;63.73;101426.69;5025468;28;2147;-58
2021/07/11 10:35:21;;;;;;;;;;;;;;;21.49;63.42;101418.63;5034018;28;1899;-60
2021/07/11 10:37:46;;;;;;;;;;;;;;;21.56;63.59;101425.13;5035128;28;1846;-61
2021/07/11 10:40:11;;;;;;;;;;;;;;;21.61;63.23;101416.53;5035151;28;2123;-60
2021/07/11 10:42:36;;;;;;;;;;;;;;;21.67;63.04;101421.31;5035047;28;1440;-61
2021/07/11 10:45:01;;;;;;;;;;;;;;;21.65;62.83;101432.34;5034518;28;1894;-61
2021/07/11 10:47:26;;;;;;;;;;;;;;;21.68;63.30;101409.44;5032951;28;2082;-60
2021/07/11 10:49:51;;;;;;;;;;;;;;;21.72;62.83;101422.53;5029889;28;1803;-61
2021/07/11 10:52:16;;;;;;;;;;;;;;;21.73;63.25;101424.25;5034907;28;1960;-61
2021/07/11 10:54:41;;;;;;;;;;;;;;;21.70;63.08;101427.25;5034093;28;1852;-61
2021/07/11 10:57:07;;;;;;;;;;;;;;;21.80;62.40;101421.75;5025588;28;1694;-60
2021/07/11 10:59:32;;;;;;;;;;;;;;;21.80;63.39;101421.75;5032138;28;1804;-58
2021/07/11 11:01:57;;;;;;;;;;;;;;;21.89;62.54;101425.38;5023585;28;1953;-60
2021/07/11 11:04:22;;;;;;;;;;;;;;;21.89;62.64;101426.22;5026610;28;1947;-58
2021/07/11 11:06:47;;;;;;;;;;;;;;;21.89;62.72;101426.22;5031873;28;2023;-58
2021/07/11 11:09:12;;;;;;;;;;;;;;;21.87;63.67;101421.94;5018052;28;1946;-58
2021/07/11 11:11:37;;;;;;;;;;;;;;;21.85;65.26;101419.44;5022336;28;1910;-59
2021/07/11 11:14:02;;;;;;;;;;;;;;;21.81;63.85;101424.31;5034678;28;2056;-61
2021/07/11 11:16:31;;;;;;;;;;;;;;;21.78;65.64;101419.19;5027198;28;1965;-59
2021/07/11 11:18:56;;;;;;;;;;;;;;;21.80;65.23;101411.75;5024910;28;1951;-59
2021/07/11 11:21:21;;;;;;;;;;;;;;;21.79;64.86;101409.19;5022072;28;1654;-59
2021/07/11 11:23:46;;;;;;;;;;;;;;;21.86;65.65;101403.97;5029706;28;2706;-59
2021/07/11 11:26:11;;;;;;;;;;;;;;;21.86;65.57;101410.25;5025701;28;1910;-61
2021/07/11 11:28:36;;;;;;;;;;;;;;;21.80;67.93;101403.63;5034509;28;1907;-60
2021/07/11 11:31:01;;;;;;;;;;;;;;;21.75;66.15;101403.22;5037831;28;1678;-60
2021/07/11 11:33:26;;;;;;;;;;;;;;;21.75;67.01;101407.81;5038833;28;918;-60
2021/07/11 11:35:51;;;;;;;;;;;;;;;21.62;66.25;101405.50;5039119;28;882;-60
2021/07/11 11:38:17;;;;;;;;;;;;;;;21.68;65.90;101407.56;5038867;28;1017;-60
2021/07/11 11:40:42;;;;;;;;;;;;;;;21.70;65.98;101410.97;5039008;28;2210;-60
2021/07/11 11:43:07;;;;;;;;;;;;;;;21.69;66.53;101413.84;5038737;28;2222;-59
2021/07/11 11:45:32;;;;;;;;;;;;;;;21.69;66.05;101413.84;5038309;28;1910;-60
2021/07/11 11:47:57;;;;;;;;;;;;;;;21.67;66.28;101411.31;5038589;28;856;-60
2021/07/11 11:50:22;;;;;;;;;;;;;;;21.56;66.34;101405.28;5038871;28;1743;-60
2021/07/11 11:52:47;;;;;;;;;;;;;;;21.39;66.87;101410.56;5038922;28;1001;-60
2021/07/11 11:55:12;;;;;;;;;;;;;;;21.34;65.28;101407.47;5038835;28;925;-60
2021/07/11 11:57:39;;;;;;;;;;;;;;;21.33;65.82;101413.03;5038181;28;964;-60
2021/07/11 12:00:04;;;;;;;;;;;;;;;21.40;67.57;101419.56;5037166;28;814;-60
2021/07/11 12:02:29;;;;;;;;;;;;;;;21.46;66.65;101416.22;5038364;28;1037;-60
2021/07/11 12:04:54;;;;;;;;;;;;;;;21.38;67.72;101410.72;5038227;28;1906;-59
2021/07/11 12:07:19;;;;;;;;;;;;;;;21.36;68.57;101413.59;5037650;28;1922;-59
2021/07/11 12:09:44;;;;;;;;;;;;;;;21.38;67.82;101418.84;5038601;28;870;-59
2021/07/11 12:12:09;;;;;;;;;;;;;;;21.40;66.24;101416.84;5038363;28;972;-60
2021/07/11 12:14:35;;;;;;;;;;;;;;;21.43;66.97;101414.69;5037899;28;795;-59
2021/07/11 12:17:00;;;;;;;;;;;;;;;21.47;67.38;101426.06;5037841;28;981;-59
2021/07/11 12:19:25;;;;;;;;;;;;;;;21.51;67.35;101416.59;5037611;28;1221;-59
2021/07/11 12:21:50;;;;;;;;;;;;;;;21.58;67.15;101416.81;5037707;28;1013;-60
2021/07/11 12:24:16;;;;;;;;;;;;;;;21.61;66.63;101422.78;5037593;28;2967;-59
2021/07/11 12:26:41;;;;;;;;;;;;;;;21.64;66.19;101427.91;5037936;28;1944;-59
2021/07/11 12:29:07;;;;;;;;;;;;;;;21.64;67.18;101422.50;5037344;28;1811;-59
2021/07/11 12:31:32;;;;;;;;;;;;;;;21.61;67.90;101419.22;5038273;28;1623;-59
2021/07/11 12:33:57;;;;;;;;;;;;;;;21.44;67.91;101424.53;5036649;28;1837;-59
2021/07/11 12:36:22;;;;;;;;;;;;;;;21.38;68.01;101421.56;5038343;28;1037;-59
2021/07/11 12:38:47;;;;;;;;;;;;;;;21.25;69.03;101413.84;5037545;28;1781;-59